.
WxDataArchive / Data Records for 2015-05-30
2015-05-29 May 2015 2015-05-31

Data Records for Saturday, 30 May 2015

Time	Temp	Chill	HIndex	Humid	Dewpt	 Wind 	HiWind	WindDir	Rain 	Barom
-----	----	-----	------	-----	-----	------	------	-------	-----	-----
00:00	74.4	74.4	74.4	68	63.1	0	1	315	0.00	29.946 
00:05	74.4	74.4	74.4	68	63.1	0	3	315	0.00	29.946 
00:10	74.4	74.4	74.4	68	63.1	0	1	315	0.00	29.946 
00:15	74.4	74.4	74.4	68	63.1	0	2	315	0.00	29.946 
00:20	74.4	74.4	74.4	69	63.5	0	1	315	0.00	29.946 
00:25	74.2	74.2	74.2	69	63.4	0	1	315	0.00	29.946 
00:30	74.2	74.2	74.2	69	63.4	0	1	315	0.00	29.946 
00:35	74.0	74.0	74.0	69	63.2	0	0	---	0.00	29.946 
00:40	73.9	73.9	73.9	70	63.5	0	1	315	0.00	29.946 
00:45	73.7	73.7	73.7	70	63.3	0	1	315	0.00	29.943 
00:50	73.5	73.5	73.5	71	63.5	0	1	315	0.00	29.943 
00:55	73.3	73.3	73.3	72	63.7	0	0	---	0.00	29.943 
01:00	73.0	73.0	73.0	72	63.4	0	1	315	0.00	29.940 
01:05	72.8	72.8	72.8	73	63.6	0	1	315	0.00	29.940 
01:10	72.7	72.7	72.7	73	63.5	0	0	---	0.00	29.940 
01:15	72.7	72.7	72.7	73	63.5	0	1	315	0.00	29.935 
01:20	72.5	72.5	72.5	74	63.7	0	0	---	0.00	29.935 
01:25	72.5	72.5	72.5	74	63.7	0	0	---	0.00	29.935 
01:30	72.3	72.3	72.3	74	63.5	0	0	---	0.00	29.935 
01:35	72.3	72.3	72.3	75	63.9	0	1	315	0.00	29.935 
01:40	72.1	72.1	72.1	75	63.7	0	0	---	0.00	29.935 
01:45	72.1	72.1	72.1	75	63.7	0	1	315	0.00	29.935 
01:50	72.0	72.0	72.0	75	63.6	0	1	315	0.00	29.935 
01:55	72.0	72.0	72.0	75	63.6	0	1	315	0.00	29.935 
02:00	72.0	72.0	72.0	75	63.6	0	1	315	0.00	29.931 
02:05	72.0	72.0	72.0	76	64.0	0	1	315	0.00	29.931 
02:10	71.8	71.8	71.8	76	63.8	0	1	315	0.00	29.931 
02:15	71.8	71.8	71.8	76	63.8	0	1	315	0.00	29.927 
02:20	71.8	71.8	71.8	77	64.2	0	1	315	0.00	29.927 
02:25	71.8	71.8	71.8	77	64.2	0	1	315	0.00	29.927 
02:30	71.8	71.8	71.8	77	64.2	0	1	315	0.00	29.928 
02:35	71.6	71.6	71.6	77	64.0	0	0	---	0.00	29.928 
02:40	71.6	71.6	71.6	77	64.0	0	1	315	0.00	29.928 
02:45	71.5	71.5	71.5	77	63.9	0	0	---	0.00	29.935 
02:50	71.3	71.3	71.3	78	64.1	0	0	---	0.00	29.935 
02:55	71.1	71.1	71.1	78	63.9	0	0	---	0.00	29.935 
03:00	71.1	71.1	71.1	78	63.9	0	0	---	0.00	29.930 
03:05	70.9	70.9	70.9	79	64.1	0	0	---	0.00	29.930 
03:10	70.9	70.9	70.9	79	64.1	0	1	315	0.00	29.930 
03:15	70.9	70.9	70.9	79	64.1	0	0	---	0.00	29.930 
03:20	70.9	70.9	70.9	80	64.4	0	1	315	0.00	29.930 
03:25	70.8	70.8	70.8	80	64.3	0	0	---	0.00	29.930 
03:30	70.8	70.8	70.8	80	64.3	0	0	---	0.00	29.928 
03:35	70.6	70.6	70.6	80	64.1	0	0	---	0.00	29.928 
03:40	70.6	70.6	70.6	80	64.1	0	0	---	0.00	29.928 
03:45	70.4	70.4	70.4	81	64.3	0	0	---	0.00	29.928 
03:50	70.4	70.4	70.4	81	64.3	0	1	315	0.00	29.928 
03:55	70.3	70.3	70.3	81	64.2	0	0	---	0.00	29.928 
04:00	70.3	70.3	70.3	81	64.2	0	0	---	0.00	29.931 
04:05	70.1	70.1	70.1	81	64.0	0	0	---	0.00	29.931 
04:10	70.1	70.1	70.1	82	64.3	0	0	---	0.00	29.931 
04:15	69.9	69.9	69.9	82	64.1	0	1	315	0.00	29.933 
04:20	69.9	69.9	69.9	82	64.1	0	0	---	0.00	29.933 
04:25	69.8	69.8	69.8	83	64.4	0	0	---	0.00	29.933 
04:30	69.6	69.6	69.6	83	64.2	0	0	---	0.00	29.933 
04:35	69.4	69.4	69.4	83	64.0	0	0	---	0.00	29.933 
04:40	69.3	69.3	69.3	84	64.2	0	0	---	0.00	29.933 
04:45	69.3	69.3	69.3	84	64.2	0	0	---	0.00	29.929 
04:50	69.1	69.1	69.1	84	64.1	0	0	---	0.00	29.929 
04:55	69.1	69.1	69.1	84	64.1	0	1	315	0.00	29.929 
05:00	68.9	68.9	68.9	85	64.2	0	0	---	0.00	29.930 
05:05	68.9	68.9	68.9	85	64.2	0	0	---	0.00	29.930 
05:10	69.1	69.1	69.1	85	64.4	0	0	---	0.00	29.930 
05:15	69.1	69.1	69.1	85	64.4	0	1	315	0.00	29.930 
05:20	69.1	69.1	69.1	85	64.4	0	0	---	0.00	29.930 
05:25	69.3	69.3	69.3	85	64.6	0	0	---	0.00	29.930 
05:30	69.4	69.4	69.4	85	64.7	0	1	315	0.00	29.939 
05:35	69.6	69.6	69.6	85	64.9	0	1	315	0.00	29.939 
05:40	69.6	69.6	69.6	85	64.9	0	0	---	0.00	29.939 
05:45	69.6	69.6	69.6	85	64.9	0	0	---	0.00	29.942 
05:50	69.6	69.6	69.6	84	64.5	0	1	315	0.00	29.942 
05:55	69.6	69.6	69.6	84	64.5	0	0	---	0.00	29.942 
06:00	69.6	69.6	69.6	85	64.9	0	0	---	0.00	29.936 
06:05	69.4	69.4	69.4	85	64.7	0	0	---	0.00	29.936 
06:10	69.4	69.4	69.4	85	64.7	0	0	---	0.00	29.936 
06:15	69.4	69.4	69.4	85	64.7	0	0	---	0.00	29.937 
06:20	69.3	69.3	69.3	85	64.6	0	1	315	0.00	29.937 
06:25	69.3	69.3	69.3	85	64.6	0	0	---	0.00	29.937 
06:30	69.3	69.3	69.3	85	64.6	0	0	---	0.00	29.944 
06:35	69.3	69.3	69.3	86	64.9	0	1	315	0.00	29.944 
06:40	69.1	69.1	69.1	86	64.7	0	0	---	0.00	29.944 
06:45	69.1	69.1	69.1	86	64.7	0	1	315	0.00	29.946 
06:50	69.1	69.1	69.1	86	64.7	0	0	---	0.00	29.946 
06:55	69.3	69.3	69.3	86	64.9	0	1	315	0.00	29.946 
07:00	69.3	69.3	69.3	86	64.9	0	1	315	0.00	29.950 
07:05	69.4	69.4	69.4	86	65.0	0	1	315	0.00	29.950 
07:10	69.4	69.4	69.4	86	65.0	0	1	315	0.00	29.950 
07:15	69.6	69.6	69.6	86	65.2	0	2	315	0.00	29.952 
07:20	69.8	69.8	69.8	86	65.4	0	0	---	0.00	29.952 
07:25	70.1	70.1	70.1	86	65.7	0	0	---	0.00	29.952 
07:30	70.3	70.3	70.3	85	65.6	0	1	315	0.00	29.960 
07:35	70.6	70.6	70.6	85	65.9	0	1	315	0.00	29.960 
07:40	70.8	70.8	70.8	84	65.7	0	1	315	0.00	29.960 
07:45	71.1	71.1	71.1	84	66.0	0	1	315	0.00	29.961 
07:50	71.5	71.5	71.5	83	66.1	0	2	315	0.00	29.961 
07:55	71.5	71.5	71.5	83	66.1	0	1	315	0.00	29.961 
08:00	71.5	71.5	71.5	83	66.1	0	2	315	0.00	29.964 
08:05	71.5	71.5	71.5	83	66.1	0	2	315	0.00	29.964 
08:10	71.6	71.6	71.6	83	66.2	0	1	315	0.00	29.964 
08:15	71.8	71.8	71.8	82	66.0	1	4	315	0.00	29.964 
08:20	72.1	72.1	72.1	82	66.3	0	3	315	0.00	29.964 
08:25	72.5	72.5	72.5	82	66.7	0	2	315	0.00	29.964 
08:30	73.0	73.0	73.0	82	67.2	0	3	315	0.00	29.961 
08:35	73.3	73.3	73.3	81	67.1	0	2	315	0.00	29.961 
08:40	73.3	73.3	73.3	80	66.7	0	3	315	0.00	29.961 
08:45	73.7	73.7	73.7	80	67.1	0	1	315	0.00	29.961 
08:50	74.2	74.2	74.2	80	67.6	0	1	315	0.00	29.961 
08:55	74.4	74.4	74.4	78	67.1	0	2	315	0.00	29.961 
09:00	74.2	74.2	74.2	77	66.5	0	4	315	0.00	29.967 
09:05	74.4	74.4	74.4	77	66.7	0	2	315	0.00	29.967 
09:10	74.4	74.4	74.4	77	66.7	0	2	315	0.00	29.967 
09:15	74.6	74.6	74.6	77	66.9	1	3	315	0.00	29.962 
09:20	74.7	74.7	74.7	76	66.6	1	4	315	0.00	29.962 
09:25	74.7	74.7	74.7	76	66.6	1	3	315	0.00	29.962 
09:30	75.1	75.1	76.4	74	66.2	1	4	315	0.00	29.966 
09:35	75.3	75.3	76.5	75	66.8	0	2	315	0.00	29.966 
09:40	75.6	75.6	76.9	75	67.1	1	3	315	0.00	29.966 
09:45	75.4	75.4	76.7	74	66.5	1	3	315	0.00	29.970 
09:50	75.8	75.8	77.2	74	66.9	0	2	315	0.00	29.970 
09:55	76.0	76.0	77.5	72	66.3	0	2	315	0.00	29.970 
10:00	76.1	76.1	77.7	72	66.4	1	3	315	0.00	29.966 
10:05	76.3	76.3	77.9	72	66.6	1	5	315	0.00	29.966 
10:10	76.1	76.1	77.7	71	66.0	1	3	292	0.00	29.966 
10:15	76.5	76.5	78.1	72	66.8	0	2	292	0.00	29.962 
10:20	76.8	76.8	78.5	71	66.7	1	3	292	0.00	29.962 
10:25	77.2	77.2	79.0	70	66.6	1	3	292	0.00	29.962 
10:30	77.0	77.0	78.8	69	66.0	1	3	292	0.00	29.963 
10:35	77.0	77.0	78.8	71	66.9	1	2	292	0.00	29.963 
10:40	77.4	77.4	79.2	69	66.4	0	2	292	0.00	29.963 
10:45	77.2	77.2	79.0	67	65.4	1	4	292	0.00	29.962 
10:50	77.0	77.0	78.8	68	65.6	1	3	292	0.00	29.962 
10:55	77.0	77.0	78.8	69	66.0	1	3	292	0.00	29.962 
11:00	77.4	77.4	79.3	71	67.2	0	1	292	0.00	29.961 
11:05	77.7	77.7	79.6	69	66.7	0	1	292	0.00	29.961 
11:10	77.9	77.9	79.9	69	66.9	0	2	292	0.00	29.961 
11:15	78.6	78.6	80.6	66	66.3	0	5	68	0.00	29.960 
11:20	79.0	79.0	81.0	65	66.2	0	2	0	0.00	29.960 
11:25	79.8	79.8	82.1	65	67.0	0	1	0	0.00	29.960 
11:30	80.3	80.3	82.4	62	66.1	0	2	0	0.00	29.956 
11:35	80.5	80.5	82.5	61	65.8	1	3	0	0.00	29.956 
11:40	80.5	80.5	82.7	62	66.3	0	2	338	0.00	29.956 
11:45	80.3	80.3	82.4	62	66.1	0	2	338	0.00	29.953 
11:50	80.1	80.1	82.0	61	65.4	1	4	338	0.00	29.953 
11:55	80.1	80.1	82.2	62	65.9	1	3	270	0.00	29.953 
12:00	80.1	80.1	82.0	61	65.4	0	2	270	0.00	29.949 
12:05	80.1	80.1	82.2	62	65.9	1	3	248	0.00	29.949 
12:10	79.9	79.9	81.7	60	64.7	1	4	248	0.00	29.949 
12:15	79.4	79.4	81.2	61	64.8	1	4	315	0.00	29.946 
12:20	78.6	78.6	80.4	63	64.9	1	3	315	0.00	29.946 
12:25	78.1	78.1	80.0	65	65.4	1	3	315	0.00	29.946 
12:30	77.9	77.9	79.7	65	65.2	0	2	315	0.00	29.946 
12:35	77.9	77.9	79.8	67	66.0	0	1	315	0.00	29.946 
12:40	77.9	77.9	79.8	67	66.0	0	1	315	0.00	29.946 
12:45	78.1	78.1	80.1	69	67.1	0	0	---	0.00	29.945 
12:50	78.1	78.1	80.0	67	66.2	0	2	0	0.00	29.945 
12:55	77.9	77.9	79.8	67	66.0	1	3	315	0.00	29.945 
13:00	77.2	77.2	79.0	70	66.6	1	5	270	0.00	29.948 
13:05	76.0	76.0	77.4	74	67.1	0	3	270	0.01	29.948 
13:10	74.7	74.7	74.7	77	67.0	0	2	270	0.01	29.948 
13:15	73.9	73.9	73.9	80	67.3	0	1	270	0.01	29.949 
13:20	73.2	73.2	73.2	83	67.7	0	0	---	0.01	29.949 
13:25	72.8	72.8	72.8	84	67.7	0	1	270	0.00	29.949 
13:30	72.3	72.3	72.3	85	67.5	0	1	270	0.00	29.943 
13:35	72.1	72.1	72.1	86	67.7	0	0	---	0.00	29.943 
13:40	72.0	72.0	72.0	86	67.6	0	0	---	0.00	29.943 
13:45	72.3	72.3	72.3	87	68.2	0	0	---	0.00	29.934 
13:50	73.5	73.5	73.5	89	70.0	0	2	270	0.00	29.934 
13:55	74.4	74.4	74.4	86	69.9	0	2	270	0.00	29.934 
14:00	74.6	74.6	74.6	83	69.1	0	2	270	0.00	29.931 
14:05	74.9	74.9	74.9	82	69.0	0	1	270	0.00	29.931 
14:10	75.6	75.6	76.3	81	69.3	0	0	---	0.00	29.931 
14:15	76.1	76.1	77.4	77	68.3	0	2	270	0.00	29.921 
14:20	77.0	77.0	78.7	77	69.2	0	1	270	0.00	29.921 
14:25	77.9	77.9	80.0	74	68.9	0	1	270	0.00	29.921 
14:30	78.3	78.3	80.5	71	68.1	0	2	270	0.00	29.918 
14:35	78.6	78.6	80.9	71	68.4	0	2	270	0.00	29.918 
14:40	78.8	78.8	81.1	70	68.2	0	1	270	0.00	29.918 
14:45	78.8	78.8	81.1	69	67.7	0	2	270	0.00	29.913 
14:50	78.5	78.5	80.6	68	67.0	0	1	270	0.00	29.913 
14:55	78.1	78.1	80.1	68	66.7	0	0	---	0.00	29.913 
15:00	77.7	77.7	79.6	69	66.7	0	1	270	0.00	29.909 
15:05	77.6	77.6	79.5	71	67.4	0	0	---	0.00	29.909 
15:10	77.2	77.2	79.0	73	67.9	0	0	---	0.00	29.909 
15:15	77.0	77.0	78.7	73	67.7	0	0	---	0.00	29.901 
15:20	76.7	76.7	78.3	74	67.8	0	0	---	0.00	29.901 
15:25	76.3	76.3	77.7	76	68.2	0	0	---	0.00	29.901 
15:30	76.0	76.0	77.2	77	68.3	0	0	---	0.00	29.902 
15:35	75.8	75.8	76.9	78	68.4	0	0	---	0.00	29.902 
15:40	75.6	75.6	76.4	80	69.0	0	0	---	0.00	29.902 
15:45	75.4	75.4	76.0	81	69.1	0	0	---	0.01	29.915 
15:50	75.4	75.4	75.9	82	69.5	0	0	---	0.00	29.915 
15:55	75.1	75.1	75.3	83	69.6	0	0	---	0.00	29.915 
16:00	74.9	74.9	74.9	84	69.7	0	0	---	0.02	29.902 
16:05	74.6	74.6	74.6	84	69.4	0	0	---	0.00	29.902 
16:10	74.2	74.2	74.2	86	69.7	0	1	180	0.01	29.902 
16:15	74.0	74.0	74.0	87	69.9	0	1	180	0.00	29.900 
16:20	73.5	73.5	73.5	86	69.0	0	2	202	0.01	29.900 
16:25	72.5	72.5	72.5	86	68.1	0	3	202	0.00	29.900 
16:30	71.8	71.8	71.8	87	67.7	0	1	248	0.01	29.891 
16:35	71.5	71.5	71.5	87	67.4	0	1	248	0.01	29.891 
16:40	71.1	71.1	71.1	88	67.4	0	0	---	0.02	29.891 
16:45	70.9	70.9	70.9	88	67.2	0	1	248	0.01	29.893 
16:50	70.8	70.8	70.8	89	67.4	0	2	248	0.01	29.893 
16:55	70.4	70.4	70.4	89	67.0	0	1	248	0.01	29.893 
17:00	70.1	70.1	70.1	90	67.0	0	3	248	0.01	29.904 
17:05	69.9	69.9	69.9	90	66.8	0	2	248	0.01	29.904 
17:10	69.8	69.8	69.8	91	67.0	0	0	---	0.00	29.904 
17:15	69.8	69.8	69.8	91	67.0	0	0	---	0.00	29.891 
17:20	69.8	69.8	69.8	91	67.0	0	0	---	0.00	29.891 
17:25	69.8	69.8	69.8	91	67.0	0	0	---	0.00	29.891 
17:30	69.9	69.9	69.9	92	67.5	0	1	248	0.00	29.893 
17:35	70.1	70.1	70.1	92	67.7	0	0	---	0.00	29.893 
17:40	70.3	70.3	70.3	92	67.9	0	1	248	0.00	29.893 
17:45	70.4	70.4	70.4	92	68.0	0	0	---	0.00	29.889 
17:50	70.4	70.4	70.4	92	68.0	0	0	---	0.00	29.889 
17:55	70.8	70.8	70.8	92	68.4	0	0	---	0.00	29.889 
18:00	70.8	70.8	70.8	92	68.4	0	1	248	0.00	29.887 
18:05	71.1	71.1	71.1	92	68.7	0	1	248	0.00	29.887 
18:10	71.6	71.6	71.6	92	69.1	0	1	248	0.00	29.887 
18:15	71.8	71.8	71.8	92	69.3	0	1	248	0.00	29.891 
18:20	71.8	71.8	71.8	91	69.0	0	1	248	0.00	29.891 
18:25	71.8	71.8	71.8	91	69.0	0	1	248	0.00	29.891 
18:30	71.6	71.6	71.6	90	68.5	0	1	248	0.00	29.892 
18:35	71.6	71.6	71.6	90	68.5	0	2	248	0.00	29.892 
18:40	71.6	71.6	71.6	90	68.5	0	0	---	0.00	29.892 
18:45	71.6	71.6	71.6	89	68.2	0	1	248	0.00	29.886 
18:50	71.6	71.6	71.6	89	68.2	0	1	248	0.00	29.886 
18:55	71.5	71.5	71.5	89	68.1	0	0	---	0.00	29.886 
19:00	71.5	71.5	71.5	89	68.1	0	0	---	0.00	29.891 
19:05	71.3	71.3	71.3	89	67.9	0	1	248	0.00	29.891 
19:10	71.3	71.3	71.3	89	67.9	0	1	248	0.00	29.891 
19:15	71.1	71.1	71.1	90	68.0	0	1	248	0.07	29.913 
19:20	70.9	70.9	70.9	90	67.8	0	0	---	0.07	29.913 
19:25	70.8	70.8	70.8	90	67.7	0	0	---	0.03	29.913 
19:30	70.6	70.6	70.6	91	67.8	0	0	---	0.02	29.919 
19:35	70.4	70.4	70.4	91	67.6	0	0	---	0.02	29.919 
19:40	70.3	70.3	70.3	91	67.5	0	1	248	0.01	29.919 
19:45	69.9	69.9	69.9	91	67.1	0	1	248	0.00	29.914 
19:50	69.6	69.6	69.6	92	67.2	0	0	---	0.01	29.914 
19:55	69.4	69.4	69.4	92	67.0	0	0	---	0.00	29.914 
20:00	69.4	69.4	69.4	92	67.0	0	0	---	0.01	29.917 
20:05	69.3	69.3	69.3	92	66.9	0	0	---	0.01	29.917 
20:10	69.3	69.3	69.3	92	66.9	0	0	---	0.01	29.917 
20:15	69.1	69.1	69.1	92	66.7	0	0	---	0.00	29.908 
20:20	69.1	69.1	69.1	92	66.7	0	0	---	0.01	29.908 
20:25	68.9	68.9	68.9	92	66.5	0	0	---	0.00	29.908 
20:30	68.8	68.8	68.8	93	66.7	0	0	---	0.01	29.906 
20:35	68.6	68.6	68.6	93	66.5	0	0	---	0.01	29.906 
20:40	68.4	68.4	68.4	93	66.3	0	0	---	0.00	29.906 
20:45	68.3	68.3	68.3	93	66.2	0	0	---	0.01	29.903 
20:50	68.3	68.3	68.3	93	66.2	0	0	---	0.01	29.903 
20:55	68.3	68.3	68.3	93	66.2	0	0	---	0.00	29.903 
21:00	68.1	68.1	68.1	93	66.0	0	0	---	0.00	29.904 
21:05	68.1	68.1	68.1	93	66.0	0	0	---	0.00	29.904 
21:10	68.1	68.1	68.1	93	66.0	0	0	---	0.00	29.904 
21:15	68.1	68.1	68.1	93	66.0	0	0	---	0.00	29.903 
21:20	68.1	68.1	68.1	93	66.0	0	0	---	0.00	29.903 
21:25	68.3	68.3	68.3	93	66.2	0	0	---	0.00	29.903 
21:30	68.3	68.3	68.3	94	66.5	0	0	---	0.00	29.907 
21:35	68.4	68.4	68.4	94	66.6	0	0	---	0.00	29.907 
21:40	68.4	68.4	68.4	94	66.6	0	0	---	0.00	29.907 
21:45	68.4	68.4	68.4	94	66.6	0	0	---	0.00	29.919 
21:50	68.4	68.4	68.4	94	66.6	0	0	---	0.00	29.919 
21:55	68.6	68.6	68.6	94	66.8	0	1	248	0.01	29.919 
22:00	68.6	68.6	68.6	94	66.8	0	0	---	0.01	29.917 
22:05	68.4	68.4	68.4	94	66.6	0	1	248	0.02	29.917 
22:10	68.4	68.4	68.4	94	66.6	0	0	---	0.07	29.917 
22:15	68.4	68.4	68.4	94	66.6	0	0	---	0.03	29.928 
22:20	68.4	68.4	68.4	94	66.6	0	0	---	0.01	29.928 
22:25	68.3	68.3	68.3	94	66.5	0	1	248	0.02	29.928 
22:30	68.3	68.3	68.3	94	66.5	0	1	248	0.01	29.929 
22:35	68.3	68.3	68.3	95	66.8	0	0	---	0.00	29.929 
22:40	68.3	68.3	68.3	95	66.8	0	0	---	0.00	29.929 
22:45	68.1	68.1	68.1	94	66.3	0	2	248	0.00	29.936 
22:50	67.6	67.6	67.6	94	65.8	0	2	248	0.00	29.936 
22:55	67.1	67.1	67.1	94	65.3	0	1	248	0.03	29.936 
23:00	66.4	66.4	66.4	94	64.6	1	4	248	0.05	29.939 
23:05	65.2	65.2	65.2	93	63.1	2	10	90	0.02	29.939 
23:10	64.2	64.2	64.2	94	62.4	2	6	90	0.01	29.939 
23:15	63.9	63.9	63.9	94	62.1	0	4	22	0.00	29.943 
23:20	63.7	63.7	63.7	94	61.9	1	5	315	0.01	29.943 
23:25	63.2	63.2	63.2	94	61.4	2	7	112	0.01	29.943 
23:30	62.1	62.1	62.1	93	60.0	2	7	90	0.01	29.945 
23:35	61.5	61.5	61.5	94	59.8	2	7	112	0.00	29.945 
23:40	61.3	61.3	61.3	94	59.6	2	8	112	0.00	29.945 
23:45	60.9	60.9	60.9	94	59.2	3	15	112	0.01	29.940 
23:50	60.5	60.5	60.5	94	58.8	2	9	90	0.00	29.940 
23:55	60.4	60.4	60.4	94	58.7	2	7	90	0.00	29.940 

CoCoRaHS
IN-AL-39
A2 Web Hosting
Creative Commons License
GoDaddy
search engine by freefind advanced

loaded 2018-11-12 14:42:00 • last modified 2010-11-18 10:43:29
Privacy PolicyDisclaimer
• wx.awcolley.com is powered by PmWiki v.2002016 •
• all content (unless otherwise noted) © 2018 A W Colley